Rechercher aéroport 
image banner adimage banner ad
image banner ad

FYBERS - Berseba Airfield

Situé à , Namibia

ICAO - , IATA -

Données fournies par Airmate  

Information générale

Coordonnées: S25°58'44" E17°50'16"
Élévation : 3047 feet MSL.
 
Voir autres Aéroports à Hardap

Données opérationnelles

Accessible au public
Heure actuelle UTC:
Heure actuelle locale:
Météo à : FYKT - Keetmanshoop ( 68 km )
METAR: FYKT 211300Z 08006KT 9999 FEW050 36/12 Q1015
TAF: TAF FYKT 211000Z 2112/2212 06010KT CAVOK
Voir NOTAMs / SUP AIP / TFR affectant cet aéroport [VIEW]
Fréquences de communication: [VIEW]

Pistes:

Identifiant RWYQFULongueur (ft)Largeur (ft)SurfaceLDA (ft)
16148°3937164GRASS
34328°3937164GRASS

Coordonnées de l'aéroport

Adresse: Namibia

Vue satellite de FYBERS